Time;durP1;ratioP1;P1;durP2;ratioP2;P2;SDS_P1;SDS_P2;PMS_P1;PMS_P2;Temp;Humidity;BMP_temperature;BMP_pressure;BME280_temperature;BME280_humidity;BME280_pressure;Samples;Min_cycle;Max_cycle;Signal;HPM_P1;HPM_P2
2024/03/04 00:00:35;;;;;;;88.55;43.35;;;10.10;76.10;;;;;;5141484;27;20382;-74
2024/03/04 00:03:00;;;;;;;76.78;40.38;;;10.00;77.70;;;;;;5125278;27;20426;-73
2024/03/04 00:05:26;;;;;;;85.28;42.53;;;10.00;76.20;;;;;;5144270;27;20437;-75
2024/03/04 00:07:52;;;;;;;84.30;40.42;;;10.20;73.90;;;;;;5145534;27;20382;-76
2024/03/04 00:10:17;;;;;;;82.72;39.15;;;10.20;72.40;;;;;;5123959;27;20410;-76
2024/03/04 00:12:44;;;;;;;80.63;40.50;;;10.10;73.70;;;;;;5140448;27;20379;-75
2024/03/04 00:15:10;;;;;;;71.53;33.88;;;10.10;73.90;;;;;;5136910;27;20753;-75
2024/03/04 00:17:35;;;;;;;80.80;37.47;;;10.10;72.20;;;;;;5133855;27;20703;-75
2024/03/04 00:20:06;;;;;;;77.68;38.33;;;10.00;73.90;;;;;;5134158;27;20392;-76
2024/03/04 00:22:33;;;;;;;82.20;40.42;;;10.00;75.30;;;;;;5133359;27;20389;-75
2024/03/04 00:24:59;;;;;;;76.95;38.58;;;10.00;75.40;;;;;;5133988;27;20817;-74
2024/03/04 00:27:25;;;;;;;74.70;39.63;;;9.90;75.40;;;;;;5115498;27;20374;-74
2024/03/04 00:29:51;;;;;;;83.57;42.20;;;9.90;77.00;;;;;;5134945;27;20370;-75
2024/03/04 00:32:16;;;;;;;83.32;38.83;;;9.90;76.50;;;;;;5116574;27;20382;-75
2024/03/04 00:34:42;;;;;;;80.55;39.25;;;10.00;75.00;;;;;;5138281;27;20386;-73
2024/03/04 00:37:08;;;;;;;79.80;39.45;;;9.90;75.40;;;;;;5139879;27;20451;-75
2024/03/04 00:39:35;;;;;;;74.97;37.25;;;9.90;76.20;;;;;;5140812;27;20725;-75
2024/03/04 00:42:00;;;;;;;68.82;33.42;;;9.90;75.30;;;;;;5139308;27;20375;-74
2024/03/04 00:44:26;;;;;;;81.27;40.17;;;9.90;75.90;;;;;;5138680;27;20414;-75
2024/03/04 00:46:51;;;;;;;74.45;36.97;;;9.80;77.40;;;;;;5137124;27;20451;-74
2024/03/04 00:49:17;;;;;;;74.85;35.88;;;9.90;76.20;;;;;;5135725;27;20367;-77
2024/03/04 00:51:42;;;;;;;73.40;33.97;;;9.90;75.20;;;;;;5133645;27;20486;-74
2024/03/04 00:54:08;;;;;;;78.87;33.77;;;9.80;75.30;;;;;;5133224;27;20467;-75
2024/03/04 00:56:33;;;;;;;78.07;38.03;;;9.80;76.50;;;;;;5132622;27;20379;-75
2024/03/04 00:58:59;;;;;;;74.00;35.07;;;9.80;77.50;;;;;;5132775;27;20371;-74
2024/03/04 01:01:25;;;;;;;65.03;32.63;;;9.80;75.90;;;;;;5131958;27;20386;-74
2024/03/04 01:03:50;;;;;;;77.70;36.33;;;9.80;76.60;;;;;;5131647;27;20712;-75
2024/03/04 01:06:16;;;;;;;72.70;33.87;;;9.80;77.10;;;;;;5131415;27;20381;-76
2024/03/04 01:08:42;;;;;;;73.00;35.13;;;9.70;77.20;;;;;;5113704;28;20374;-73
2024/03/04 01:11:08;;;;;;;76.93;36.08;;;9.70;77.00;;;;;;5131647;28;20375;-74
2024/03/04 01:13:33;;;;;;;71.38;35.20;;;9.80;76.80;;;;;;5131597;28;20401;-75
2024/03/04 01:15:59;;;;;;;72.50;35.37;;;9.80;76.80;;;;;;5131539;28;20865;-75
2024/03/04 01:18:24;;;;;;;69.10;34.97;;;9.80;77.50;;;;;;5131395;28;20379;-76
2024/03/04 01:20:52;;;;;;;74.53;34.50;;;9.70;77.00;;;;;;5131401;28;20876;-74
2024/03/04 01:23:17;;;;;;;58.97;26.25;;;9.80;76.50;;;;;;5131656;28;20402;-74
2024/03/04 01:25:44;;;;;;;57.43;27.00;;;9.70;76.30;;;;;;5131524;28;20381;-75
2024/03/04 01:28:10;;;;;;;69.25;35.78;;;9.60;77.20;;;;;;5131228;28;20371;-74
2024/03/04 01:30:35;;;;;;;69.53;35.13;;;9.70;77.80;;;;;;5112919;28;20437;-74
2024/03/04 01:33:03;;;;;;;72.50;34.80;;;9.70;77.10;;;;;;5131609;28;20427;-73
2024/03/04 01:35:29;;;;;;;60.85;27.27;;;9.80;76.10;;;;;;5138348;28;20374;-75
2024/03/04 01:37:55;;;;;;;66.40;32.70;;;9.80;75.50;;;;;;5138199;28;20449;-75
2024/03/04 01:40:20;;;;;;;61.00;31.65;;;9.80;75.70;;;;;;5135883;28;20385;-75
2024/03/04 01:42:46;;;;;;;67.68;33.47;;;9.70;75.70;;;;;;5134743;28;20382;-75
2024/03/04 01:45:25;;;;;;;63.72;33.10;;;9.70;76.70;;;;;;5135557;28;20374;-75
2024/03/04 01:47:57;;;;;;;66.85;32.40;;;9.70;77.00;;;;;;5134742;28;20907;-75
2024/03/04 01:50:26;;;;;;;66.85;30.35;;;9.80;75.70;;;;;;5135341;28;20734;-74
2024/03/04 01:52:54;;;;;;;60.97;29.58;;;9.90;73.70;;;;;;5136190;28;20442;-74
2024/03/04 01:55:20;;;;;;;54.95;28.92;;;9.90;73.70;;;;;;5115226;28;20375;-75
2024/03/04 01:57:52;;;;;;;52.73;28.23;;;9.80;73.30;;;;;;5132934;28;20386;-75
2024/03/04 02:00:20;;;;;;;56.00;26.23;;;9.80;73.10;;;;;;5133866;28;20409;-74
2024/03/04 02:02:46;;;;;;;42.35;24.25;;;9.80;72.40;;;;;;5133561;28;20370;-74
2024/03/04 02:05:14;;;;;;;41.00;20.67;;;9.70;73.70;;;;;;5132437;28;20382;-75
2024/03/04 02:07:41;;;;;;;50.70;23.42;;;9.60;73.90;;;;;;5131040;28;20379;-74
2024/03/04 02:10:07;;;;;;;46.97;24.70;;;9.50;75.20;;;;;;5130928;28;20378;-74
2024/03/04 02:12:33;;;;;;;48.95;24.55;;;9.50;75.40;;;;;;5131310;27;20467;-75
2024/03/04 02:14:59;;;;;;;52.63;25.02;;;9.50;76.00;;;;;;5134864;27;20375;-75
2024/03/04 02:17:27;;;;;;;39.70;20.67;;;9.50;75.80;;;;;;5116300;27;20892;-76
2024/03/04 02:19:59;;;;;;;37.80;19.20;;;9.40;75.40;;;;;;5134728;27;20378;-74
2024/03/04 02:22:28;;;;;;;49.70;24.43;;;9.30;76.00;;;;;;5134646;27;20383;-74
2024/03/04 02:24:53;;;;;;;41.38;19.92;;;9.30;77.10;;;;;;5134484;27;20391;-75
2024/03/04 02:27:21;;;;;;;43.85;22.27;;;9.30;76.60;;;;;;5134495;27;20806;-75
2024/03/04 02:29:48;;;;;;;44.72;21.77;;;9.30;77.10;;;;;;5134386;27;20885;-75
2024/03/04 02:32:15;;;;;;;46.95;22.10;;;9.20;77.10;;;;;;5134243;27;20469;-75
2024/03/04 02:34:41;;;;;;;39.10;17.80;;;9.20;77.10;;;;;;5116198;27;20383;-75
2024/03/04 02:37:07;;;;;;;47.55;23.95;;;9.10;77.70;;;;;;5133987;27;20482;-73
2024/03/04 02:39:35;;;;;;;35.75;18.30;;;9.20;78.10;;;;;;5134120;27;20409;-74
2024/03/04 02:42:01;;;;;;;46.70;22.67;;;9.20;77.40;;;;;;5134210;27;20374;-76
2024/03/04 02:44:27;;;;;;;43.63;22.07;;;9.20;77.40;;;;;;5115561;27;20427;-74
2024/03/04 02:46:52;;;;;;;43.47;22.00;;;9.30;76.70;;;;;;5133750;27;20382;-74
2024/03/04 02:49:18;;;;;;;41.17;22.90;;;9.30;76.80;;;;;;5133988;27;20383;-75
2024/03/04 02:51:43;;;;;;;43.63;21.67;;;9.30;76.00;;;;;;5134149;27;20480;-75
2024/03/04 02:54:09;;;;;;;33.10;17.97;;;9.30;75.10;;;;;;5134595;27;20985;-74
2024/03/04 02:56:35;;;;;;;32.40;17.57;;;9.40;72.70;;;;;;5115612;27;20641;-75
2024/03/04 02:59:01;;;;;;;33.95;18.42;;;9.40;71.60;;;;;;5133834;27;20744;-75
2024/03/04 03:01:27;;;;;;;29.40;17.20;;;9.30;72.80;;;;;;5134334;27;20375;-78
2024/03/04 03:03:53;;;;;;;27.77;14.70;;;9.30;72.00;;;;;;5115120;27;20465;-75
2024/03/04 03:06:18;;;;;;;27.17;14.75;;;9.30;71.40;;;;;;5133762;27;20681;-75
2024/03/04 03:08:44;;;;;;;30.80;15.90;;;9.10;73.10;;;;;;5133993;27;20375;-75
2024/03/04 03:11:11;;;;;;;27.65;16.27;;;9.10;73.90;;;;;;5135512;27;20379;-75
2024/03/04 03:13:37;;;;;;;27.83;15.27;;;9.10;75.00;;;;;;5122345;27;20383;-74
2024/03/04 03:16:04;;;;;;;29.38;16.15;;;9.20;72.60;;;;;;5143642;27;20493;-75
2024/03/04 03:18:30;;;;;;;27.98;14.43;;;9.20;71.90;;;;;;5124222;27;20394;-75
2024/03/04 03:20:56;;;;;;;24.05;12.27;;;9.20;70.50;;;;;;5133492;27;20375;-74
2024/03/04 03:23:22;;;;;;;23.10;11.73;;;9.10;71.10;;;;;;5133327;27;20760;-76
2024/03/04 03:25:47;;;;;;;24.10;12.53;;;8.90;72.30;;;;;;5133288;27;20412;-75
2024/03/04 03:28:13;;;;;;;22.97;12.03;;;8.90;73.40;;;;;;5133076;27;20433;-76
2024/03/04 03:30:40;;;;;;;31.30;16.70;;;8.90;73.80;;;;;;5133460;27;20872;-75
2024/03/04 03:33:06;;;;;;;28.80;14.65;;;8.80;74.40;;;;;;5133445;27;20417;-74
2024/03/04 03:35:32;;;;;;;29.42;16.90;;;8.90;74.30;;;;;;5133540;27;20414;-74
2024/03/04 03:37:58;;;;;;;32.42;16.13;;;8.90;74.30;;;;;;5114432;27;20386;-75
2024/03/04 03:40:24;;;;;;;29.30;15.15;;;8.90;73.40;;;;;;5133300;27;20379;-74
2024/03/04 03:42:49;;;;;;;28.10;15.63;;;8.90;73.30;;;;;;5132796;27;20895;-74
2024/03/04 03:45:15;;;;;;;30.38;13.57;;;9.00;72.30;;;;;;5114560;27;20387;-75
2024/03/04 03:47:41;;;;;;;28.58;15.05;;;9.00;71.90;;;;;;5114445;27;20375;-75
2024/03/04 03:50:07;;;;;;;24.23;12.47;;;9.00;72.10;;;;;;5132964;27;20421;-75
2024/03/04 03:52:34;;;;;;;27.45;14.10;;;9.10;70.40;;;;;;5132965;27;20876;-75
2024/03/04 03:55:00;;;;;;;23.95;13.90;;;9.00;71.20;;;;;;5132882;27;20805;-75
2024/03/04 03:57:25;;;;;;;25.60;12.50;;;9.00;72.00;;;;;;5113979;27;20458;-75
2024/03/04 03:59:51;;;;;;;27.80;13.07;;;9.00;69.60;;;;;;5132869;27;20374;-76
2024/03/04 04:02:17;;;;;;;28.20;12.37;;;8.90;69.90;;;;;;5132777;27;20461;-75
2024/03/04 04:04:42;;;;;;;25.73;13.30;;;8.90;70.30;;;;;;5132734;27;20462;-76
2024/03/04 04:07:08;;;;;;;23.10;12.93;;;9.00;70.80;;;;;;5132303;27;20875;-75
2024/03/04 04:09:33;;;;;;;24.47;12.00;;;8.90;70.40;;;;;;5132684;27;20406;-76
2024/03/04 04:11:59;;;;;;;22.00;12.43;;;9.00;70.30;;;;;;5132418;27;20382;-76
2024/03/04 04:14:25;;;;;;;25.10;12.43;;;8.90;70.90;;;;;;5132620;27;20374;-75
2024/03/04 04:16:51;;;;;;;28.30;13.18;;;8.90;71.20;;;;;;5131794;27;20395;-74
2024/03/04 04:19:17;;;;;;;27.25;13.60;;;8.90;71.80;;;;;;5132294;27;20821;-76
2024/03/04 04:21:43;;;;;;;30.73;14.75;;;9.00;71.20;;;;;;5132403;27;20383;-75
2024/03/04 04:24:10;;;;;;;22.83;12.15;;;9.00;70.80;;;;;;5132245;27;20401;-75
2024/03/04 04:26:36;;;;;;;24.13;12.38;;;9.00;69.50;;;;;;5132273;27;20477;-76
2024/03/04 04:29:03;;;;;;;28.13;13.85;;;9.00;69.80;;;;;;5133253;27;20406;-74
2024/03/04 04:31:28;;;;;;;29.48;13.65;;;8.90;71.60;;;;;;5135944;27;20730;-75
2024/03/04 04:33:54;;;;;;;30.23;13.55;;;9.00;71.50;;;;;;5139304;27;20651;-75
2024/03/04 04:36:20;;;;;;;26.88;12.63;;;9.00;70.20;;;;;;5137188;27;20379;-76
2024/03/04 04:38:46;;;;;;;26.97;12.60;;;9.10;69.20;;;;;;5132463;27;20426;-75
2024/03/04 04:41:12;;;;;;;22.70;11.63;;;9.00;69.80;;;;;;5131898;27;20424;-76
2024/03/04 04:43:37;;;;;;;27.63;11.30;;;9.00;69.60;;;;;;5131955;27;20481;-75
2024/03/04 04:46:03;;;;;;;27.08;12.38;;;8.90;70.20;;;;;;5134581;27;20832;-76
2024/03/04 04:48:29;;;;;;;23.73;12.27;;;8.90;71.90;;;;;;5133045;27;20375;-73
2024/03/04 04:50:54;;;;;;;21.63;10.60;;;9.00;72.80;;;;;;5133196;27;20434;-75
2024/03/04 04:53:20;;;;;;;25.60;12.97;;;9.00;70.10;;;;;;5136487;27;20390;-75
2024/03/04 04:55:46;;;;;;;28.30;12.10;;;9.00;70.80;;;;;;5120846;27;20447;-75
2024/03/04 04:58:14;;;;;;;22.95;12.30;;;9.00;70.40;;;;;;5145102;27;20375;-73
2024/03/04 05:00:40;;;;;;;23.73;11.30;;;9.00;71.00;;;;;;5151202;27;20378;-74
2024/03/04 05:03:06;;;;;;;27.50;11.38;;;9.00;69.60;;;;;;5144319;27;20399;-74
2024/03/04 05:05:31;;;;;;;23.30;11.23;;;9.00;70.40;;;;;;5145196;27;20401;-73
2024/03/04 05:07:57;;;;;;;23.70;10.90;;;8.90;70.80;;;;;;5148907;28;20885;-74
2024/03/04 05:10:22;;;;;;;21.23;10.55;;;8.90;71.50;;;;;;5149572;28;20390;-72
2024/03/04 05:12:48;;;;;;;24.58;9.60;;;8.90;71.30;;;;;;5153631;28;20389;-72
2024/03/04 05:15:17;;;;;;;25.25;11.45;;;8.90;71.80;;;;;;5155735;28;20389;-73
2024/03/04 05:17:43;;;;;;;24.20;10.82;;;8.90;72.70;;;;;;5155445;28;20386;-71
2024/03/04 05:20:09;;;;;;;21.37;9.83;;;8.80;72.80;;;;;;5155449;28;20378;-74
2024/03/04 05:22:35;;;;;;;21.73;11.07;;;8.80;73.40;;;;;;5144537;28;20385;-75
2024/03/04 05:25:01;;;;;;;22.25;10.68;;;8.70;74.20;;;;;;5147473;28;20430;-74
2024/03/04 05:27:29;;;;;;;27.88;11.57;;;8.80;73.90;;;;;;5136003;28;20478;-75
2024/03/04 05:29:55;;;;;;;21.27;11.30;;;8.80;74.50;;;;;;5131620;28;20402;-77
2024/03/04 05:32:21;;;;;;;22.37;12.03;;;8.90;74.40;;;;;;5131699;28;20406;-73
2024/03/04 05:34:46;;;;;;;23.70;12.50;;;8.90;73.10;;;;;;5131416;28;20438;-74
2024/03/04 05:37:12;;;;;;;31.10;12.35;;;9.00;73.50;;;;;;5131949;28;20389;-74
2024/03/04 05:39:38;;;;;;;21.77;11.27;;;9.10;71.50;;;;;;5131832;28;20374;-75
2024/03/04 05:42:04;;;;;;;25.30;12.40;;;9.00;71.80;;;;;;5131392;28;20374;-73
2024/03/04 05:44:29;;;;;;;22.23;12.10;;;9.00;73.00;;;;;;5102502;28;20435;-74
2024/03/04 05:46:55;;;;;;;26.52;13.27;;;9.00;73.10;;;;;;5090477;28;20902;-74
2024/03/04 05:49:21;;;;;;;29.27;11.97;;;8.90;73.80;;;;;;5094668;28;20389;-75
2024/03/04 05:51:46;;;;;;;32.78;13.18;;;8.80;75.10;;;;;;5103614;28;20445;-75
2024/03/04 05:54:12;;;;;;;27.40;13.93;;;8.80;76.00;;;;;;5113786;28;20441;-75
2024/03/04 05:56:42;;;;;;;31.58;13.30;;;8.80;76.20;;;;;;5098488;28;20389;-76
2024/03/04 05:59:09;;;;;;;30.35;12.20;;;8.80;76.50;;;;;;5094320;28;20458;-72
2024/03/04 06:01:35;;;;;;;29.67;12.40;;;8.70;77.30;;;;;;5110385;28;20465;-72
2024/03/04 06:04:00;;;;;;;23.73;12.77;;;8.70;77.90;;;;;;5114352;28;20392;-71
2024/03/04 06:06:26;;;;;;;31.60;13.63;;;8.70;77.70;;;;;;5114226;28;20756;-72
2024/03/04 06:08:51;;;;;;;28.47;13.13;;;8.80;77.70;;;;;;5099650;28;20979;-73
2024/03/04 06:11:17;;;;;;;25.63;12.00;;;8.80;77.20;;;;;;5095161;28;20397;-72
2024/03/04 06:13:42;;;;;;;22.98;11.63;;;8.80;77.00;;;;;;5076326;28;20394;-73
2024/03/04 06:16:08;;;;;;;25.30;11.57;;;8.70;77.30;;;;;;5098934;28;20412;-73
2024/03/04 06:18:34;;;;;;;22.33;12.88;;;8.70;78.50;;;;;;5108363;28;20385;-73
2024/03/04 06:20:59;;;;;;;28.13;13.55;;;8.80;78.70;;;;;;5112127;28;20476;-72
2024/03/04 06:23:25;;;;;;;24.23;11.73;;;8.80;77.60;;;;;;5101423;28;20410;-73
2024/03/04 06:25:50;;;;;;;23.80;11.55;;;8.90;76.70;;;;;;5099581;28;20385;-75
2024/03/04 06:28:16;;;;;;;26.52;12.20;;;8.90;76.30;;;;;;5098499;28;20897;-76
2024/03/04 06:30:42;;;;;;;22.40;11.65;;;8.90;76.70;;;;;;5095890;28;20385;-75
2024/03/04 06:33:07;;;;;;;22.40;10.57;;;8.90;76.50;;;;;;5094499;28;20392;-74
2024/03/04 06:35:33;;;;;;;28.20;12.63;;;8.90;76.60;;;;;;5076907;28;20382;-76
2024/03/04 06:37:58;;;;;;;25.83;11.33;;;8.90;76.40;;;;;;5077985;28;20398;-76
2024/03/04 06:40:24;;;;;;;24.30;11.80;;;8.90;76.20;;;;;;5098692;28;20922;-75
2024/03/04 06:42:50;;;;;;;30.95;13.32;;;8.90;76.30;;;;;;5096074;28;20416;-75
2024/03/04 06:45:16;;;;;;;24.17;12.83;;;8.90;75.80;;;;;;5098327;28;20394;-76
2024/03/04 06:47:42;;;;;;;25.35;11.88;;;8.90;75.90;;;;;;5084458;28;20393;-77
2024/03/04 06:50:07;;;;;;;31.00;13.15;;;8.90;75.90;;;;;;5100756;28;20379;-76
2024/03/04 06:52:33;;;;;;;26.60;10.98;;;8.90;76.10;;;;;;5094221;28;20385;-74
2024/03/04 06:55:00;;;;;;;31.73;12.93;;;8.80;77.00;;;;;;5093907;28;20473;-73
2024/03/04 06:57:25;;;;;;;30.50;12.60;;;8.70;79.00;;;;;;5093473;28;20378;-74
2024/03/04 06:59:51;;;;;;;34.20;16.00;;;8.70;79.30;;;;;;5093702;28;20382;-75
2024/03/04 07:02:18;;;;;;;38.25;14.90;;;8.80;80.10;;;;;;5095132;28;20465;-76
2024/03/04 07:04:44;;;;;;;37.58;15.35;;;8.90;80.40;;;;;;5095705;28;20485;-74
2024/03/04 07:07:10;;;;;;;38.30;14.75;;;9.00;78.50;;;;;;5093925;28;20370;-75
2024/03/04 07:09:35;;;;;;;35.50;12.90;;;9.00;77.10;;;;;;5093648;28;20752;-73
2024/03/04 07:12:01;;;;;;;39.73;14.83;;;8.90;77.50;;;;;;5076579;28;20473;-76
2024/03/04 07:14:26;;;;;;;38.77;14.50;;;8.80;78.90;;;;;;5094847;28;20378;-76
2024/03/04 07:16:52;;;;;;;34.63;15.77;;;8.80;79.80;;;;;;5093905;28;20791;-74
2024/03/04 07:19:17;;;;;;;41.70;15.67;;;8.80;79.80;;;;;;5094106;28;20428;-75
2024/03/04 07:21:43;;;;;;;36.27;16.33;;;8.90;78.90;;;;;;5095290;28;20503;-75
2024/03/04 07:24:08;;;;;;;46.20;17.07;;;8.90;78.20;;;;;;5094313;28;20398;-76
2024/03/04 07:26:34;;;;;;;29.03;14.97;;;9.00;77.50;;;;;;5095670;28;20473;-76
2024/03/04 07:29:00;;;;;;;28.43;15.57;;;8.90;77.20;;;;;;5109760;28;20412;-74
2024/03/04 07:31:26;;;;;;;32.67;16.23;;;8.90;79.10;;;;;;5093139;28;20385;-75
2024/03/04 07:33:52;;;;;;;33.00;15.00;;;8.90;79.00;;;;;;5094197;28;20386;-75
2024/03/04 07:36:17;;;;;;;30.00;15.95;;;8.90;78.50;;;;;;5092535;28;20378;-73
2024/03/04 07:38:43;;;;;;;39.10;16.70;;;8.90;79.20;;;;;;5092844;28;20382;-76
2024/03/04 07:41:08;;;;;;;37.72;16.02;;;8.90;78.90;;;;;;5092308;28;20378;-76
2024/03/04 07:43:35;;;;;;;35.55;17.05;;;8.90;77.50;;;;;;5092299;28;20428;-75
2024/03/04 07:46:01;;;;;;;39.08;16.55;;;8.90;78.50;;;;;;5092658;28;20381;-76
2024/03/04 07:48:26;;;;;;;34.78;16.38;;;8.90;77.90;;;;;;5092460;28;20412;-76
2024/03/04 07:50:52;;;;;;;35.57;17.13;;;8.90;77.30;;;;;;5092148;28;20427;-75
2024/03/04 07:53:18;;;;;;;41.63;18.80;;;9.00;77.00;;;;;;5092607;28;20411;-76
2024/03/04 07:55:43;;;;;;;39.50;18.60;;;8.90;78.20;;;;;;5092118;28;20390;-76
2024/03/04 07:58:09;;;;;;;37.03;18.90;;;9.10;77.00;;;;;;5092649;28;20370;-76
2024/03/04 08:00:35;;;;;;;32.67;17.35;;;9.20;75.20;;;;;;5093924;28;20393;-76
2024/03/04 08:03:00;;;;;;;36.83;17.60;;;9.30;73.70;;;;;;5092596;28;20502;-74
2024/03/04 08:05:28;;;;;;;33.85;17.80;;;9.40;73.60;;;;;;5091548;28;21486;-77
2024/03/04 08:07:56;;;;;;;40.57;17.20;;;9.40;72.80;;;;;;5092178;28;20409;-76
2024/03/04 08:10:21;;;;;;;33.50;16.43;;;9.40;72.50;;;;;;5092220;28;20384;-77
2024/03/04 08:12:47;;;;;;;31.60;16.60;;;9.40;69.10;;;;;;5092940;28;20712;-77
2024/03/04 08:15:12;;;;;;;39.63;18.20;;;9.20;70.50;;;;;;5093248;28;20877;-75
2024/03/04 08:17:38;;;;;;;31.80;14.70;;;9.30;72.10;;;;;;5091663;28;20390;-75
2024/03/04 08:20:04;;;;;;;30.08;15.68;;;9.20;70.70;;;;;;5091885;28;20370;-76
2024/03/04 08:22:32;;;;;;;34.75;14.85;;;9.10;72.70;;;;;;5091475;28;20483;-75
2024/03/04 08:24:58;;;;;;;27.30;14.40;;;9.10;73.70;;;;;;5091572;28;20405;-75
2024/03/04 08:27:23;;;;;;;26.57;14.50;;;9.10;73.80;;;;;;5091534;28;20589;-76
2024/03/04 08:29:49;;;;;;;25.73;12.70;;;9.30;72.60;;;;;;5091104;28;20839;-76
2024/03/04 08:32:15;;;;;;;31.27;13.87;;;9.40;69.40;;;;;;5092713;28;20406;-75
2024/03/04 08:34:40;;;;;;;23.90;12.10;;;9.40;67.10;;;;;;5092379;28;20382;-77
2024/03/04 08:37:06;;;;;;;31.40;12.83;;;9.20;68.40;;;;;;5091629;28;20382;-76
2024/03/04 08:39:31;;;;;;;24.02;13.35;;;9.10;69.90;;;;;;5096705;28;20390;-76
2024/03/04 08:41:57;;;;;;;21.73;13.15;;;9.10;70.40;;;;;;5101981;28;20382;-76
2024/03/04 08:44:24;;;;;;;20.60;11.18;;;9.20;70.50;;;;;;5092913;28;20404;-76
2024/03/04 08:46:49;;;;;;;21.48;10.82;;;9.10;67.60;;;;;;5091366;28;20374;-75
2024/03/04 08:49:15;;;;;;;19.67;10.77;;;9.10;67.30;;;;;;5090840;28;20386;-76
2024/03/04 08:51:41;;;;;;;21.10;10.25;;;9.10;67.20;;;;;;5090990;28;20382;-76
2024/03/04 08:54:07;;;;;;;21.42;11.10;;;9.20;67.90;;;;;;5091498;28;20378;-76
2024/03/04 08:56:33;;;;;;;16.65;9.88;;;9.40;64.70;;;;;;5072277;28;20386;-76
2024/03/04 08:58:59;;;;;;;17.48;9.70;;;9.40;63.80;;;;;;5091598;28;20400;-75
2024/03/04 09:01:31;;;;;;;19.42;10.30;;;9.50;62.60;;;;;;5072597;28;20505;-76
2024/03/04 09:03:58;;;;;;;16.95;9.20;;;9.60;61.20;;;;;;5091074;28;20477;-76
2024/03/04 09:06:24;;;;;;;22.27;10.95;;;9.60;61.00;;;;;;5090674;28;20377;-75
2024/03/04 09:08:50;;;;;;;23.40;10.33;;;9.80;60.30;;;;;;5094534;28;20381;-76
2024/03/04 09:11:16;;;;;;;22.70;10.30;;;9.90;58.90;;;;;;5090691;28;20423;-75
2024/03/04 09:13:43;;;;;;;19.87;10.87;;;9.90;58.40;;;;;;5091044;28;20459;-76
2024/03/04 09:16:08;;;;;;;18.15;10.43;;;10.10;56.60;;;;;;5091514;28;20419;-75
2024/03/04 09:18:35;;;;;;;18.43;11.73;;;9.90;58.00;;;;;;5091860;28;20713;-75
2024/03/04 09:21:01;;;;;;;26.98;12.10;;;9.70;59.30;;;;;;5091460;28;20406;-75
2024/03/04 09:23:26;;;;;;;19.75;11.32;;;9.60;60.30;;;;;;5095586;28;20401;-75
2024/03/04 09:25:52;;;;;;;23.27;11.70;;;9.60;62.30;;;;;;5094790;28;20729;-76
2024/03/04 09:28:19;;;;;;;22.30;12.20;;;9.70;60.70;;;;;;5094552;28;20393;-75
2024/03/04 09:30:45;;;;;;;20.45;11.93;;;9.70;60.30;;;;;;5095112;28;20744;-75
2024/03/04 09:33:11;;;;;;;23.07;12.03;;;9.90;59.50;;;;;;5076899;28;20398;-75
2024/03/04 09:35:37;;;;;;;25.40;13.30;;;9.90;57.50;;;;;;5094593;28;20439;-76
2024/03/04 09:38:03;;;;;;;28.37;12.40;;;9.60;59.80;;;;;;5095116;28;20471;-76
2024/03/04 09:40:29;;;;;;;22.83;12.20;;;9.70;61.90;;;;;;5094763;28;20392;-76
2024/03/04 09:42:57;;;;;;;22.55;11.88;;;9.80;59.60;;;;;;5094675;28;20378;-78
2024/03/04 09:45:25;;;;;;;25.50;12.45;;;9.80;59.20;;;;;;5095181;28;20727;-75
2024/03/04 09:47:54;;;;;;;21.93;12.00;;;9.80;58.70;;;;;;5094388;28;20831;-76
2024/03/04 09:50:22;;;;;;;21.70;11.30;;;9.80;58.50;;;;;;5095048;28;20493;-74
2024/03/04 09:52:49;;;;;;;22.25;11.57;;;9.90;57.00;;;;;;5094909;28;20382;-77
2024/03/04 09:55:15;;;;;;;26.65;12.20;;;9.90;57.40;;;;;;5094656;28;20374;-77
2024/03/04 09:57:41;;;;;;;25.90;12.35;;;9.80;57.20;;;;;;5095522;28;20378;-76
2024/03/04 10:00:13;;;;;;;23.92;12.57;;;9.60;58.90;;;;;;5094817;28;20752;-77
2024/03/04 10:02:40;;;;;;;30.45;15.80;;;9.50;60.70;;;;;;5077762;28;20386;-77
2024/03/04 10:05:07;;;;;;;26.60;13.60;;;9.50;60.70;;;;;;5095480;28;20394;-75
2024/03/04 10:07:35;;;;;;;28.65;14.70;;;9.60;60.60;;;;;;5098120;28;20518;-76
2024/03/04 10:10:02;;;;;;;23.88;12.98;;;9.70;58.40;;;;;;5096976;28;20787;-74
2024/03/04 10:12:28;;;;;;;27.00;14.55;;;9.60;57.50;;;;;;5099983;28;20381;-76
2024/03/04 10:14:59;;;;;;;26.92;13.30;;;9.60;57.80;;;;;;5100727;28;20377;-76
2024/03/04 10:17:26;;;;;;;22.52;13.15;;;9.60;57.50;;;;;;5099030;28;20394;-77
2024/03/04 10:20:02;;;;;;;29.35;13.35;;;9.60;58.50;;;;;;5094306;28;20748;-76
2024/03/04 10:22:33;;;;;;;30.63;13.48;;;9.80;57.50;;;;;;5094924;28;20414;-76
2024/03/04 10:25:06;;;;;;;31.50;14.95;;;9.80;57.00;;;;;;5103195;28;20427;-76
2024/03/04 10:27:33;;;;;;;28.27;13.93;;;9.70;57.40;;;;;;5099806;28;20456;-75
2024/03/04 10:30:28;;;;;;;29.17;13.82;;;9.60;57.50;;;;;;5093565;28;20888;-75
2024/03/04 10:32:55;;;;;;;31.25;14.70;;;9.50;58.20;;;;;;5075540;28;20477;-75
2024/03/04 10:35:21;;;;;;;29.23;15.80;;;9.50;58.40;;;;;;5092652;28;20382;-74
2024/03/04 10:37:48;;;;;;;24.40;14.02;;;9.50;58.30;;;;;;5093365;28;20378;-76
2024/03/04 10:40:17;;;;;;;25.13;14.75;;;9.50;58.40;;;;;;5093821;28;20469;-75
2024/03/04 10:42:45;;;;;;;26.58;13.77;;;9.50;58.60;;;;;;5093767;28;20481;-75
2024/03/04 10:45:17;;;;;;;23.33;13.70;;;9.60;58.50;;;;;;5095517;28;20512;-75
2024/03/04 10:47:47;;;;;;;26.77;14.23;;;9.80;57.30;;;;;;5108588;28;20354;-75
2024/03/04 10:50:14;;;;;;;25.15;14.70;;;9.80;56.50;;;;;;5102601;28;20389;-76
2024/03/04 10:52:40;;;;;;;33.80;17.37;;;9.80;56.60;;;;;;5093531;28;20378;-76
2024/03/04 10:55:06;;;;;;;33.33;17.23;;;10.00;54.20;;;;;;5093347;28;20386;-76
2024/03/04 10:57:34;;;;;;;27.33;14.50;;;10.00;55.30;;;;;;5093039;28;20386;-75
2024/03/04 11:00:10;;;;;;;25.48;13.02;;;9.90;55.30;;;;;;5093192;28;20465;-75
2024/03/04 11:03:01;;;;;;;21.88;13.95;;;9.90;55.00;;;;;;5093370;28;20873;-75
2024/03/04 11:05:31;;;;;;;29.42;14.65;;;9.90;54.90;;;;;;5093835;28;20381;-76
2024/03/04 11:08:16;;;;;;;21.45;12.65;;;9.80;54.90;;;;;;5093079;28;20373;-76
2024/03/04 11:10:55;;;;;;;22.50;13.88;;;9.80;54.90;;;;;;5074609;28;20386;-75
2024/03/04 11:13:26;;;;;;;20.35;12.23;;;9.90;54.30;;;;;;5092773;28;20471;-76
2024/03/04 11:15:58;;;;;;;19.80;11.77;;;10.00;54.80;;;;;;5092581;28;20860;-76
2024/03/04 11:18:36;;;;;;;19.95;11.88;;;10.10;52.40;;;;;;5092484;28;20728;-76
2024/03/04 11:21:03;;;;;;;19.98;12.00;;;10.20;51.30;;;;;;5092867;28;20393;-73
2024/03/04 11:23:30;;;;;;;22.75;11.60;;;10.00;52.20;;;;;;5092524;28;20501;-76
2024/03/04 11:25:57;;;;;;;25.15;11.98;;;9.70;53.20;;;;;;5092696;28;20378;-74
2024/03/04 11:28:24;;;;;;;22.10;12.70;;;9.70;54.20;;;;;;5093301;28;20760;-76
2024/03/04 11:30:50;;;;;;;24.17;12.85;;;9.90;53.20;;;;;;5092613;28;20378;-76
2024/03/04 11:33:36;;;;;;;19.52;11.35;;;9.90;51.70;;;;;;5093037;28;20384;-76
2024/03/04 11:36:02;;;;;;;23.40;13.82;;;10.00;50.80;;;;;;5074986;28;20385;-75
2024/03/04 11:38:28;;;;;;;18.20;10.98;;;10.20;50.30;;;;;;5092582;28;20768;-74
2024/03/04 11:40:57;;;;;;;16.58;11.27;;;10.10;49.80;;;;;;5092535;28;20378;-77
2024/03/04 11:43:41;;;;;;;19.52;11.40;;;10.00;50.40;;;;;;5092142;28;20402;-76
2024/03/04 11:46:38;;;;;;;18.63;11.10;;;9.90;50.50;;;;;;5092549;28;20370;-77
2024/03/04 11:49:23;;;;;;;17.85;11.20;;;10.00;50.90;;;;;;5092266;28;20390;-77
2024/03/04 11:52:15;;;;;;;18.20;11.10;;;10.10;50.70;;;;;;5092015;28;20457;-74
2024/03/04 11:54:48;;;;;;;17.83;11.00;;;10.20;49.60;;;;;;5092460;28;20390;-74
2024/03/04 11:57:15;;;;;;;19.90;10.33;;;10.40;48.60;;;;;;5092405;28;20473;-77
2024/03/04 11:59:55;;;;;;;19.27;10.70;;;10.30;48.70;;;;;;5074052;28;20738;-74
2024/03/04 12:02:21;;;;;;;17.55;10.20;;;10.30;49.10;;;;;;5073810;28;20394;-76
2024/03/04 12:04:46;;;;;;;17.17;9.57;;;10.40;48.80;;;;;;5092299;28;20764;-74
2024/03/04 12:07:13;;;;;;;19.48;10.40;;;10.10;48.40;;;;;;5091843;28;20378;-76
2024/03/04 12:09:40;;;;;;;17.80;10.67;;;10.00;49.90;;;;;;5092338;28;20384;-77
2024/03/04 12:12:06;;;;;;;16.98;10.63;;;10.20;49.60;;;;;;5092571;28;20381;-76
2024/03/04 12:14:31;;;;;;;17.30;10.82;;;10.30;48.20;;;;;;5093337;28;20902;-76
2024/03/04 12:16:57;;;;;;;18.85;10.93;;;10.40;47.70;;;;;;5092681;28;20474;-76
2024/03/04 12:19:24;;;;;;;20.73;11.50;;;10.40;48.40;;;;;;5073993;28;20386;-77
2024/03/04 12:21:49;;;;;;;21.58;11.90;;;10.40;47.50;;;;;;5092798;28;20427;-76
2024/03/04 12:24:26;;;;;;;17.17;10.65;;;10.60;46.50;;;;;;5093703;28;20505;-75
2024/03/04 12:26:54;;;;;;;16.48;10.38;;;10.70;46.00;;;;;;5092471;28;20369;-75
2024/03/04 12:29:22;;;;;;;15.80;10.50;;;10.50;46.10;;;;;;5092868;28;20378;-75
2024/03/04 12:31:50;;;;;;;16.23;9.55;;;10.40;46.90;;;;;;5092196;28;20421;-75
2024/03/04 12:34:15;;;;;;;21.83;11.00;;;10.30;47.30;;;;;;5091414;28;20436;-75